Weather at Petrozavodsk Airport

Public forecast

Using degrees Celsius for public forecast. Weather courtesy of forecast.io.

Current aviation weather report (METAR) for Petrozavodsk Airport

Retrieved 2021/04/16 14:30 UTC (11 minutes ago):

ULPB 161430Z 15002MPS CAVOK 11/M08 Q1032 R19/09//60 NOSIG RMK QFE770/1027

Closest aviation forecast (TAF) to Petrozavodsk Airport

Forecast is more than 12 hours old.

Closest forecast is Joensuu Airport, 135.3 nm (250.6 km) WNW. Retrieved 2014/10/24 09:45 UTC (6 years ago):

TAF TAF EFJO 240844Z 2409/2421 16010KT 9999 BKN010 BECMG 2409/2411 SCT015 TEMPO 2409/2416 17010G23KT PROB40 2418/2421 2000 SN